createdAt,value
2023-03-20T00:02:21.181Z,69.45
2023-03-20T00:04:49.774Z,71.18
2023-03-20T00:07:19.531Z,69.07
2023-03-20T00:09:47.812Z,62.88
2023-03-20T00:12:18.972Z,65.22
2023-03-20T00:14:47.284Z,61.30
2023-03-20T00:17:20.511Z,64.47
2023-03-20T00:19:49.086Z,55.97
2023-03-20T00:22:17.396Z,63.25
2023-03-20T00:24:47.535Z,72.00
2023-03-20T00:27:17.193Z,71.75
2023-03-20T00:29:46.038Z,61.28
2023-03-20T00:32:15.454Z,65.25
2023-03-20T00:34:43.795Z,63.38
2023-03-20T00:37:12.712Z,58.17
2023-03-20T00:39:41.726Z,54.88
2023-03-20T00:42:19.389Z,62.88
2023-03-20T00:44:52.464Z,58.17
2023-03-20T00:47:24.357Z,58.30
2023-03-20T00:49:56.042Z,57.80
2023-03-20T00:52:25.028Z,59.65
2023-03-20T00:54:53.563Z,62.10
2023-03-20T00:57:26.132Z,59.13
2023-03-20T00:59:58.262Z,70.47
2023-03-20T01:02:29.051Z,64.32
2023-03-20T01:04:57.899Z,65.82
2023-03-20T01:07:26.659Z,64.47
2023-03-20T01:09:54.979Z,62.22
2023-03-20T01:12:25.168Z,66.38
2023-03-20T01:14:57.013Z,63.40
2023-03-20T01:17:27.085Z,65.25
2023-03-20T01:19:55.376Z,66.72
2023-03-20T01:22:23.794Z,63.28
2023-03-20T01:24:52.038Z,71.28
2023-03-20T01:27:21.894Z,73.70
2023-03-20T01:29:51.620Z,70.95
2023-03-20T01:32:21.474Z,71.93
2023-03-20T01:34:50.158Z,71.20
2023-03-20T01:37:24.061Z,71.97
2023-03-20T01:39:52.460Z,68.65
2023-03-20T01:42:20.870Z,66.80
2023-03-20T01:44:49.277Z,69.97
2023-03-20T01:47:21.185Z,67.82
2023-03-20T01:50:29.145Z,75.30
2023-03-20T01:53:05.105Z,64.45
2023-03-20T01:55:34.054Z,61.72
2023-03-20T01:58:07.204Z,65.35
2023-03-20T02:00:36.654Z,69.63
2023-03-20T02:03:08.653Z,66.07
2023-03-20T02:05:38.857Z,60.80
2023-03-20T02:08:29.127Z,63.92
2023-03-20T02:10:59.512Z,67.45
2023-03-20T02:13:29.994Z,65.80
2023-03-20T02:16:02.755Z,70.85
2023-03-20T02:18:33.146Z,69.82
2023-03-20T02:21:31.414Z,68.35
2023-03-20T02:24:29.934Z,72.47
2023-03-20T02:27:06.670Z,65.78
2023-03-20T02:30:16.062Z,66.95
2023-03-20T02:33:17.196Z,66.40
2023-03-20T02:36:29.545Z,72.63
2023-03-20T02:39:22.533Z,66.40
2023-03-20T02:42:05.284Z,67.63
2023-03-20T02:44:39.862Z,71.68
2023-03-20T02:47:13.181Z,63.22
2023-03-20T02:49:53.256Z,58.10
2023-03-20T02:52:27.441Z,61.13
2023-03-20T02:55:09.639Z,74.65
2023-03-20T02:57:46.128Z,66.60
2023-03-20T03:00:18.784Z,65.70
2023-03-20T03:02:53.100Z,68.85
2023-03-20T03:05:26.707Z,62.83
2023-03-20T03:07:59.822Z,66.45
2023-03-20T03:10:33.105Z,68.03
2023-03-20T03:13:04.038Z,64.07
2023-03-20T03:15:35.922Z,60.55
2023-03-20T03:18:06.488Z,66.65
2023-03-20T03:20:38.067Z,73.13
2023-03-20T03:23:09.719Z,69.00
2023-03-20T03:25:41.857Z,66.60
2023-03-20T03:28:23.212Z,59.55
2023-03-20T03:30:54.181Z,58.08
2023-03-20T03:33:25.085Z,67.85
2023-03-20T03:35:57.125Z,69.60
2023-03-20T03:38:32.958Z,65.10
2023-03-20T03:41:19.332Z,68.22
2023-03-20T03:43:53.957Z,64.35
2023-03-20T03:46:34.173Z,69.05
2023-03-20T03:49:05.503Z,69.40
2023-03-20T03:51:37.273Z,53.83
2023-03-20T03:54:10.249Z,56.83
2023-03-20T03:56:41.941Z,47.75
2023-03-20T03:59:14.719Z,55.25
2023-03-20T04:01:45.199Z,53.28
2023-03-20T04:04:16.765Z,52.85
2023-03-20T04:06:45.129Z,44.47
2023-03-20T04:09:13.409Z,45.15
2023-03-20T04:11:43.073Z,46.10
2023-03-20T04:14:11.733Z,49.38
2023-03-20T04:16:40.483Z,39.47
2023-03-20T04:19:08.897Z,39.50
2023-03-20T04:21:37.289Z,40.30
2023-03-20T04:24:06.764Z,41.95
2023-03-20T04:26:35.084Z,39.75
2023-03-20T04:29:04.859Z,41.95
2023-03-20T04:31:33.586Z,41.78
2023-03-20T04:34:01.860Z,38.78
2023-03-20T04:36:30.343Z,39.17
2023-03-20T04:38:58.731Z,35.55
2023-03-20T04:41:27.107Z,33.50
2023-03-20T04:43:55.678Z,37.38
2023-03-20T04:46:25.437Z,37.25
2023-03-20T04:48:53.727Z,44.80
2023-03-20T04:51:21.945Z,39.80
2023-03-20T04:53:50.344Z,37.58
2023-03-20T04:56:18.650Z,35.40
2023-03-20T04:58:46.911Z,34.60
2023-03-20T05:01:15.475Z,30.60
2023-03-20T05:03:48.094Z,26.23
2023-03-20T05:06:16.414Z,35.03
2023-03-20T05:08:44.738Z,32.70
2023-03-20T05:11:13.136Z,36.10
2023-03-20T05:13:41.364Z,30.23
2023-03-20T05:16:10.384Z,30.15
2023-03-20T05:18:41.548Z,56.75
2023-03-20T05:21:11.461Z,59.63
2023-03-20T05:23:39.768Z,49.60
2023-03-20T05:26:08.549Z,38.90
2023-03-20T05:28:36.835Z,34.90
2023-03-20T05:31:05.560Z,41.13
2023-03-20T05:33:36.232Z,33.63
2023-03-20T05:36:07.506Z,27.73
2023-03-20T05:38:37.166Z,24.10
2023-03-20T05:41:05.545Z,28.48
2023-03-20T05:43:33.906Z,25.83
2023-03-20T05:46:02.207Z,20.73
2023-03-20T05:48:30.701Z,24.05
2023-03-20T05:50:59.162Z,23.00
2023-03-20T05:53:27.477Z,20.30
2023-03-20T05:55:57.231Z,22.05
2023-03-20T05:58:25.586Z,22.55
2023-03-20T06:00:53.797Z,22.55
2023-03-20T06:03:22.023Z,19.45
2023-03-20T06:05:50.522Z,22.88
2023-03-20T06:08:18.738Z,16.38
2023-03-20T06:10:47.021Z,19.05
2023-03-20T06:13:16.678Z,17.20
2023-03-20T06:15:44.976Z,17.75
2023-03-20T06:18:13.198Z,17.98
2023-03-20T06:20:41.652Z,14.10
2023-03-20T06:23:09.903Z,10.88
2023-03-20T06:25:38.796Z,12.60
2023-03-20T06:28:07.106Z,11.88
2023-03-20T06:30:36.809Z,9.90
2023-03-20T06:33:07.084Z,9.32
2023-03-20T06:35:36.078Z,11.10
2023-03-20T06:38:04.491Z,8.30
2023-03-20T06:40:33.081Z,11.23
2023-03-20T06:43:02.248Z,9.88
2023-03-20T06:45:30.741Z,11.02
2023-03-20T06:48:01.029Z,7.95
2023-03-20T06:50:29.301Z,5.90
2023-03-20T06:52:57.744Z,9.65
2023-03-20T06:55:26.068Z,5.70
2023-03-20T06:57:54.273Z,9.00
2023-03-20T07:00:22.981Z,6.53
2023-03-20T07:02:51.193Z,5.93
2023-03-20T07:05:20.884Z,7.07
2023-03-20T07:07:49.219Z,8.60
2023-03-20T07:10:18.368Z,5.80
2023-03-20T07:12:46.662Z,6.93
2023-03-20T07:15:14.868Z,9.85
2023-03-20T07:17:43.405Z,8.70
2023-03-20T07:20:13.008Z,5.68
2023-03-20T07:22:42.904Z,6.22
2023-03-20T07:25:12.214Z,5.85
2023-03-20T07:27:40.396Z,6.70
2023-03-20T07:30:09.891Z,8.73
2023-03-20T07:32:38.234Z,4.22
2023-03-20T07:35:07.484Z,4.60
2023-03-20T07:37:35.786Z,6.13
2023-03-20T07:40:06.793Z,7.20
2023-03-20T07:42:35.016Z,5.60
2023-03-20T07:45:03.653Z,6.63
2023-03-20T07:47:31.973Z,6.43
2023-03-20T07:50:00.233Z,6.63
2023-03-20T07:52:28.494Z,6.43
2023-03-20T07:54:56.709Z,5.85
2023-03-20T07:57:26.374Z,6.05
2023-03-20T07:59:54.583Z,6.93
2023-03-20T08:02:22.804Z,7.35
2023-03-20T08:04:51.040Z,7.10
2023-03-20T08:07:19.238Z,6.78
2023-03-20T08:09:47.469Z,5.05
2023-03-20T08:12:16.862Z,7.10
2023-03-20T08:14:46.570Z,5.67
2023-03-20T08:17:17.561Z,9.83
2023-03-20T08:19:48.071Z,5.77
2023-03-20T08:22:19.562Z,5.43
2023-03-20T08:24:47.844Z,6.22
2023-03-20T08:27:17.321Z,7.33
2023-03-20T08:29:46.995Z,4.93
2023-03-20T08:32:15.206Z,5.80
2023-03-20T08:34:43.668Z,8.47
2023-03-20T08:37:12.433Z,8.13
2023-03-20T08:39:40.901Z,7.63
2023-03-20T08:42:09.188Z,10.00
2023-03-20T08:44:37.535Z,8.13
2023-03-20T08:47:10.584Z,6.78
2023-03-20T08:49:38.912Z,7.32
2023-03-20T08:52:07.217Z,7.60
2023-03-20T08:54:35.730Z,7.33
2023-03-20T08:57:04.017Z,6.57
2023-03-20T08:59:33.079Z,5.10
2023-03-20T09:02:02.284Z,8.33
2023-03-20T09:04:32.045Z,5.93
2023-03-20T09:07:02.294Z,7.77
2023-03-20T09:09:30.757Z,7.23
2023-03-20T09:11:59.386Z,9.10
2023-03-20T09:14:29.055Z,5.03
2023-03-20T09:16:57.349Z,9.13
2023-03-20T09:19:25.625Z,5.15
2023-03-20T09:21:55.472Z,7.82
2023-03-20T09:24:23.885Z,8.57
2023-03-20T09:26:52.376Z,4.43
2023-03-20T09:29:20.633Z,8.27
2023-03-20T09:31:48.895Z,6.45
2023-03-20T09:34:17.186Z,5.10
2023-03-20T09:36:45.425Z,8.55
2023-03-20T09:39:15.024Z,7.35
2023-03-20T09:41:57.620Z,23.83
2023-03-20T09:44:47.085Z,16.17
2023-03-20T09:47:22.564Z,22.55
2023-03-20T09:50:02.892Z,40.15
2023-03-20T09:52:33.729Z,22.83
2023-03-20T09:55:08.017Z,11.50
2023-03-20T09:57:41.251Z,10.43
2023-03-20T10:00:16.890Z,4.67
2023-03-20T10:02:51.232Z,10.63
2023-03-20T10:05:24.265Z,3.30
2023-03-20T10:07:53.356Z,3.70
2023-03-20T10:10:27.674Z,25.40
2023-03-20T10:13:04.290Z,10.33
2023-03-20T10:15:44.874Z,7.40
2023-03-20T10:18:24.064Z,22.63
2023-03-20T10:20:58.324Z,12.60
2023-03-20T10:23:34.170Z,5.43
2023-03-20T10:26:07.497Z,9.57
2023-03-20T10:28:41.416Z,5.63
2023-03-20T10:31:29.383Z,5.40
2023-03-20T10:34:14.872Z,5.03
2023-03-20T10:36:57.870Z,8.10
2023-03-20T10:39:39.650Z,7.77
2023-03-20T10:42:15.988Z,7.00
2023-03-20T10:44:50.490Z,6.50
2023-03-20T10:47:22.182Z,7.30
2023-03-20T10:49:55.667Z,6.20
2023-03-20T10:52:29.292Z,8.07
2023-03-20T10:55:02.240Z,8.67
2023-03-20T10:57:35.422Z,12.33
2023-03-20T11:00:04.963Z,11.93
2023-03-20T11:02:33.738Z,19.23
2023-03-20T11:05:22.517Z,20.47
2023-03-20T11:08:01.133Z,9.20
2023-03-20T11:10:29.775Z,11.07
2023-03-20T11:12:59.511Z,12.50
2023-03-20T11:15:29.995Z,15.68
2023-03-20T11:17:59.808Z,16.65
2023-03-20T11:20:34.637Z,12.25
2023-03-20T11:23:05.778Z,12.05
2023-03-20T11:25:35.964Z,17.02
2023-03-20T11:28:39.715Z,13.25
2023-03-20T11:31:17.337Z,14.13
2023-03-20T11:33:47.824Z,12.90
2023-03-20T11:36:24.825Z,14.07
2023-03-20T11:38:59.771Z,14.73
2023-03-20T11:41:30.182Z,18.25
2023-03-20T11:43:59.953Z,15.77
2023-03-20T11:46:28.619Z,16.23
2023-03-20T11:49:08.969Z,13.47
2023-03-20T11:51:38.710Z,13.40
2023-03-20T11:54:15.265Z,14.57
2023-03-20T11:56:53.797Z,15.50
2023-03-20T11:59:26.000Z,13.83
2023-03-20T12:01:56.017Z,16.07
2023-03-20T12:04:29.830Z,13.33
2023-03-20T12:07:02.184Z,15.37
2023-03-20T12:09:38.746Z,18.70
2023-03-20T12:12:15.018Z,16.30
2023-03-20T12:14:54.480Z,18.23
2023-03-20T12:17:36.310Z,34.87
2023-03-20T12:20:16.876Z,32.83
2023-03-20T12:22:55.510Z,34.47
2023-03-20T12:25:26.501Z,32.03
2023-03-20T12:28:03.021Z,36.38
2023-03-20T12:30:46.486Z,43.15
2023-03-20T12:33:21.936Z,47.42
2023-03-20T12:35:53.221Z,50.85
2023-03-20T12:38:31.128Z,46.95
2023-03-20T12:41:11.190Z,49.30
2023-03-20T12:44:06.823Z,57.33
2023-03-20T12:46:45.698Z,54.10
2023-03-20T12:49:30.339Z,49.30
2023-03-20T12:52:08.424Z,57.47
2023-03-20T12:54:55.875Z,44.80
2023-03-20T12:57:34.796Z,45.72
2023-03-20T13:00:14.482Z,46.88
2023-03-20T13:02:58.511Z,50.15
2023-03-20T13:05:34.653Z,41.83
2023-03-20T13:08:19.629Z,40.75
2023-03-20T13:10:56.337Z,37.85
2023-03-20T13:13:34.549Z,33.38
2023-03-20T13:16:14.952Z,36.60
2023-03-20T13:18:54.318Z,32.78
2023-03-20T13:21:38.202Z,33.05
2023-03-20T13:24:25.606Z,32.25
2023-03-20T13:27:04.059Z,30.48
2023-03-20T13:29:39.893Z,29.20
2023-03-20T13:32:18.178Z,36.95
2023-03-20T13:35:08.845Z,30.83
2023-03-20T13:37:41.935Z,33.17
2023-03-20T13:40:18.971Z,33.40
2023-03-20T13:42:53.148Z,31.00
2023-03-20T13:45:32.235Z,32.42
2023-03-20T13:48:06.680Z,32.95
2023-03-20T13:50:50.826Z,33.60
2023-03-20T13:53:29.048Z,33.53
2023-03-20T13:56:04.884Z,31.77
2023-03-20T13:58:53.030Z,30.27
2023-03-20T14:01:26.909Z,36.22
2023-03-20T14:03:55.789Z,38.15
2023-03-20T14:06:56.872Z,29.58
2023-03-20T14:09:36.671Z,32.78
2023-03-20T14:12:08.878Z,29.45
2023-03-20T14:14:44.455Z,34.83
2023-03-20T14:17:19.781Z,34.63
2023-03-20T14:19:52.281Z,39.17
2023-03-20T14:22:23.939Z,32.13
2023-03-20T14:24:57.179Z,38.60
2023-03-20T14:27:45.077Z,30.08
2023-03-20T14:30:39.624Z,38.95
2023-03-20T14:33:09.157Z,36.10
2023-03-20T14:35:39.510Z,34.67
2023-03-20T14:38:21.698Z,35.85
2023-03-20T14:40:58.437Z,33.10
2023-03-20T14:43:41.562Z,38.35
2023-03-20T14:46:21.184Z,33.85
2023-03-20T14:48:54.119Z,44.95
2023-03-20T14:51:31.445Z,38.85
2023-03-20T14:54:25.273Z,39.88
2023-03-20T14:56:54.347Z,41.38
2023-03-20T14:59:24.524Z,33.03
2023-03-20T15:01:59.428Z,35.65
2023-03-20T15:04:35.641Z,40.15
2023-03-20T15:07:07.625Z,38.13
2023-03-20T15:09:41.095Z,37.85
2023-03-20T15:12:10.617Z,39.40
2023-03-20T15:14:45.573Z,43.58
2023-03-20T15:17:20.694Z,46.30
2023-03-20T15:19:51.912Z,40.55
2023-03-20T15:22:24.767Z,39.53
2023-03-20T15:24:56.098Z,43.17
2023-03-20T15:27:29.577Z,46.25
2023-03-20T15:30:01.443Z,58.67
2023-03-20T15:32:30.782Z,51.60
2023-03-20T15:34:59.458Z,54.13
2023-03-20T15:37:28.624Z,44.15
2023-03-20T15:40:00.364Z,52.30
2023-03-20T15:42:28.900Z,54.60
2023-03-20T15:44:57.642Z,51.53
2023-03-20T15:47:27.145Z,46.65
2023-03-20T15:49:57.206Z,51.45
2023-03-20T15:52:33.191Z,63.33
2023-03-20T15:55:13.239Z,46.20
2023-03-20T15:57:47.408Z,54.45
2023-03-20T16:00:21.021Z,65.68
2023-03-20T16:02:50.044Z,83.88
2023-03-20T16:05:20.004Z,91.75
2023-03-20T16:07:54.118Z,62.10
2023-03-20T16:10:30.403Z,54.80
2023-03-20T16:12:59.389Z,52.42
2023-03-20T16:15:31.690Z,39.58
2023-03-20T16:18:02.668Z,36.40
2023-03-20T16:20:36.044Z,43.90
2023-03-20T16:23:10.814Z,54.22
2023-03-20T16:25:40.610Z,43.85
2023-03-20T16:28:08.881Z,45.97
2023-03-20T16:30:37.748Z,49.13
2023-03-20T16:33:10.596Z,39.80
2023-03-20T16:35:41.866Z,44.55
2023-03-20T16:38:24.115Z,39.28
2023-03-20T16:40:58.615Z,47.90
2023-03-20T16:43:31.224Z,39.78
2023-03-20T16:46:05.112Z,45.25
2023-03-20T16:48:34.478Z,41.97
2023-03-20T16:51:11.842Z,40.85
2023-03-20T16:53:45.718Z,42.95
2023-03-20T16:56:20.901Z,45.90
2023-03-20T16:58:49.295Z,45.72
2023-03-20T17:01:21.333Z,45.67
2023-03-20T17:03:53.426Z,47.38
2023-03-20T17:06:39.653Z,38.13
2023-03-20T17:09:20.366Z,47.40
2023-03-20T17:11:52.916Z,49.60
2023-03-20T17:14:27.035Z,44.08
2023-03-20T17:16:58.848Z,45.47
2023-03-20T17:19:27.075Z,43.03
2023-03-20T17:21:55.593Z,42.83
2023-03-20T17:24:23.865Z,45.65
2023-03-20T17:26:55.881Z,45.95
2023-03-20T17:29:24.188Z,45.72
2023-03-20T17:31:56.164Z,44.40
2023-03-20T17:34:24.715Z,42.53
2023-03-20T17:36:53.124Z,44.22
2023-03-20T17:39:22.475Z,43.92
2023-03-20T17:41:55.045Z,44.70
2023-03-20T17:44:24.000Z,43.80
2023-03-20T17:46:58.214Z,40.05
2023-03-20T17:49:28.356Z,41.72
2023-03-20T17:51:59.998Z,38.42
2023-03-20T17:54:28.304Z,37.55
2023-03-20T17:56:58.021Z,44.92
2023-03-20T17:59:28.773Z,44.42
2023-03-20T18:01:57.308Z,46.80
2023-03-20T18:04:26.134Z,45.25
2023-03-20T18:06:54.397Z,42.97
2023-03-20T18:09:25.869Z,39.70
2023-03-20T18:11:54.128Z,44.92
2023-03-20T18:14:23.823Z,36.70
2023-03-20T18:16:52.061Z,35.72
2023-03-20T18:19:25.798Z,40.08
2023-03-20T18:21:54.124Z,36.17
2023-03-20T18:24:23.147Z,34.30
2023-03-20T18:26:52.958Z,34.50
2023-03-20T18:29:21.978Z,39.80
2023-03-20T18:31:51.741Z,38.38
2023-03-20T18:34:19.984Z,39.63
2023-03-20T18:36:51.431Z,47.05
2023-03-20T18:39:24.842Z,54.17
2023-03-20T18:41:56.365Z,56.50
2023-03-20T18:44:24.565Z,48.60
2023-03-20T18:46:54.219Z,49.72
2023-03-20T18:49:25.619Z,46.90
2023-03-20T18:51:54.154Z,40.92
2023-03-20T18:54:28.087Z,37.85
2023-03-20T18:57:03.972Z,38.70
2023-03-20T18:59:32.364Z,42.28
2023-03-20T19:02:02.350Z,40.85
2023-03-20T19:04:30.567Z,44.33
2023-03-20T19:07:01.661Z,41.00
2023-03-20T19:09:29.934Z,42.50
2023-03-20T19:12:00.708Z,37.92
2023-03-20T19:14:31.856Z,31.90
2023-03-20T19:17:02.233Z,31.50
2023-03-20T19:19:33.961Z,38.08
2023-03-20T19:22:13.080Z,41.30
2023-03-20T19:24:47.125Z,36.90
2023-03-20T19:27:20.114Z,42.88
2023-03-20T19:29:48.752Z,43.38
2023-03-20T19:32:21.393Z,41.03
2023-03-20T19:37:50.397Z,37.97
2023-03-20T19:40:32.657Z,39.97
2023-03-20T19:43:03.725Z,40.05
2023-03-20T19:45:35.142Z,44.25
2023-03-20T19:48:12.319Z,41.97
2023-03-20T19:50:41.743Z,35.92
2023-03-20T19:53:13.991Z,39.72
2023-03-20T19:55:42.664Z,35.55
2023-03-20T19:58:14.211Z,36.78
2023-03-20T20:01:00.330Z,38.25
2023-03-20T20:03:30.427Z,51.15
2023-03-20T20:06:02.414Z,42.65
2023-03-20T20:08:45.811Z,41.08
2023-03-20T20:11:19.961Z,44.67
2023-03-20T20:14:13.369Z,40.78
2023-03-20T20:16:43.665Z,42.50
2023-03-20T20:19:16.426Z,39.33
2023-03-20T20:24:38.076Z,35.40
2023-03-20T20:27:17.191Z,39.40
2023-03-20T20:29:49.280Z,33.30
2023-03-20T20:32:18.268Z,36.63
2023-03-20T20:40:28.550Z,33.70
2023-03-20T20:43:01.649Z,31.67
2023-03-20T20:45:31.674Z,32.35
2023-03-20T20:48:01.222Z,34.47
2023-03-20T20:50:32.633Z,37.63
2023-03-20T20:53:02.311Z,28.40
2023-03-20T20:55:33.617Z,26.17
2023-03-20T20:58:05.864Z,28.00
2023-03-20T21:00:49.564Z,29.98
2023-03-20T21:03:20.280Z,32.28
2023-03-20T21:05:54.260Z,29.38
2023-03-20T21:08:22.841Z,27.10
2023-03-20T21:10:52.284Z,30.80
2023-03-20T21:13:20.851Z,30.58
2023-03-20T21:15:57.541Z,35.90
2023-03-20T21:18:28.597Z,25.25
2023-03-20T21:21:05.212Z,32.00
2023-03-20T21:23:33.623Z,28.15
2023-03-20T21:26:05.157Z,29.77
2023-03-20T21:28:33.918Z,27.80
2023-03-20T21:31:23.831Z,27.98
2023-03-20T21:33:54.736Z,28.73
2023-03-20T21:36:25.182Z,26.58
2023-03-20T21:39:07.429Z,22.05
2023-03-20T21:41:37.812Z,23.92
2023-03-20T21:44:06.728Z,24.58
2023-03-20T21:47:19.142Z,25.70
2023-03-20T21:53:06.776Z,26.75
2023-03-20T21:56:17.089Z,25.67
2023-03-20T21:58:51.108Z,22.73
2023-03-20T22:07:24.032Z,29.63
2023-03-20T22:15:54.318Z,30.13
2023-03-20T22:18:31.125Z,29.92
2023-03-20T22:24:30.033Z,31.10
2023-03-20T22:27:08.592Z,26.30
2023-03-20T22:35:33.690Z,25.13
2023-03-20T22:44:30.593Z,26.80
2023-03-20T22:46:36.039Z,28.05
2023-03-20T22:48:50.594Z,25.40
2023-03-20T22:51:22.701Z,25.70
2023-03-20T22:53:56.936Z,24.25
2023-03-20T22:56:25.907Z,30.73
2023-03-20T22:58:55.758Z,27.60
2023-03-20T23:01:24.179Z,22.42
2023-03-20T23:03:52.565Z,27.40
2023-03-20T23:06:23.190Z,25.45
2023-03-20T23:08:56.570Z,26.48
2023-03-20T23:11:27.123Z,29.63
2023-03-20T23:13:57.224Z,24.63
2023-03-20T23:16:25.744Z,27.50
2023-03-20T23:18:54.445Z,28.13
2023-03-20T23:21:22.892Z,25.88
2023-03-20T23:23:51.330Z,25.48
2023-03-20T23:26:21.946Z,33.38
2023-03-20T23:28:53.369Z,30.30
2023-03-20T23:31:25.000Z,26.70
2023-03-20T23:33:55.481Z,25.92
2023-03-20T23:36:36.092Z,29.45
2023-03-20T23:39:06.529Z,30.13
2023-03-20T23:42:29.249Z,29.58
2023-03-20T23:44:24.039Z,31.02
2023-03-20T23:46:55.547Z,27.77
2023-03-20T23:49:24.066Z,30.35
2023-03-20T23:51:52.381Z,32.50
2023-03-20T23:54:20.814Z,30.08
2023-03-20T23:56:49.258Z,28.25
2023-03-20T23:59:22.126Z,29.95
